• Join FlightAware (Why Join?)
  • Login
  • US Flag 
01:36AM EDT


 

Airport Tracker/Info


-or-


 

Live Flight TrackerFlight Track Log ✈ AWI3680 ✈ 26-Jul-2013 ✈ KALB - KPHL

Flight Track Log - Related Links

Times and Time Zones

All times are in EDT time to prevent confusion due to time zone crossing. See the AWI3680 flight status page for this flight to view local times or setup timezone preferences in your user account.

Time Position Orientation Groundspeed Altitude Reporting Facility
EDT Latitude Longitude Course Direction KTS MPH feet Rate Location/Type
08:31PM 42.7736 -73.8092 223° Southwest 160 184 1,800  Level Boston Center
08:31PM 42.8211 -73.8356 338° Northwest 230 265 4,200 2,400 Climbing Boston Center
08:33PM 42.7334 -74.2065 270° West  Level FlightAware Approximate
08:33PM 42.8158 -73.9289 266° West 239 275 6,600  Level Boston Center
08:33PM 42.7792 -74.0214 242° Southwest 261 300 10,100 2,820 Climbing Boston Center
08:34PM 42.7157 -74.3344 220° Southwest  Level FlightAware Approximate
08:35PM 42.6485 -74.4102 220° Southwest  Level FlightAware Approximate
08:35PM 42.7303 -74.0908 226° Southwest 266 306 12,300  Level Boston Center
08:36PM 42.5813 -74.4859 223° Southwest  Level FlightAware Approximate
08:36PM 42.6683 -74.1936 231° Southwest 304 350 15,000  Level Boston Center
08:36PM 42.6106 -74.2822 228° Southwest 341 392 16,000 480 Climbing Boston Center
08:37PM 42.5314 -74.4067 229° Southwest 388 447 16,000  Level Boston Center
08:39PM 42.4650 -74.5117 229° Southwest 408 470 16,000  Level Boston Center
08:40PM 42.3344 -74.7178 229° Southwest 421 484 16,000  Level New York Center
08:41PM 42.2597 -74.8336 229° Southwest 421 484 16,000  Level New York Center
08:42PM 42.1853 -74.9436 228° Southwest 416 479 16,000  Level New York Center
08:43PM 42.0906 -75.0328 215° Southwest 411 473 16,000  Level New York Center
08:44PM 41.9875 -75.1181 212° Southwest 411 473 16,000  Level New York Center
08:45PM 41.8889 -75.1953 210° Southwest 411 473 16,000  Level New York Center
08:46PM 41.7922 -75.2750 212° Southwest 416 479 16,000  Level New York Center
08:47PM 41.7061 -75.3442 211° Southwest 416 479 16,000 -540 Level New York Center
08:48PM 41.6117 -75.4211 211° Southwest 416 479 15,000 -1,680 Descending New York Center
08:49PM 41.5083 -75.5025 211° Southwest 408 470 12,700 -1,500 Descending New York Center
08:50PM 41.4181 -75.5736 211° Southwest 395 455 12,000 -360 Descending New York Center
08:51PM 41.3275 -75.6472 211° Southwest 386 444 12,000  Level New York Center
08:52PM 41.2406 -75.6850 198° South 378 435 12,000  Level New York Center
08:53PM 41.1364 -75.6886 181° South 369 425 12,000 -840 Level New York Center
08:54PM 41.0219 -75.6858 179° South 374 430 10,400 -1,020 Descending New York Center
08:55PM 40.9183 -75.6700 173° South 374 430 10,000 -240 Descending New York Center
08:56PM 40.8244 -75.6222 159° South 374 430 10,000  Level New York Center
08:57PM 40.7408 -75.5806 159° South 368 423 10,000  Level New York Center
08:58PM 40.6469 -75.5303 158° South 363 418 10,000  Level New York Center
08:59PM 40.5508 -75.4825 159° South 347 399 10,000  Level New York Center
09:00PM 40.4814 -75.4478 159° South 323 372 10,000  Level New York Center
09:01PM 40.4083 -75.4019 154° Southeast 301 346 10,000 -180 Level New York Center
09:02PM 40.3272 -75.3419 151° Southeast 301 346 9,700 -720 Descending New York Center
09:03PM 40.2583 -75.2886 149° Southeast 296 341 8,600 -1,320 Descending New York Center
09:04PM 40.1933 -75.2436 152° Southeast 296 341 7,200 -1,440 Descending New York Center
09:05PM 40.1206 -75.1872 149° Southeast 290 334 5,700 -1,440 Descending New York Center
09:06PM 40.0636 -75.1456 151° Southeast 275 316 4,400 -1,380 Descending New York Center
09:07PM 39.9983 -75.1064 155° Southeast 242 278 3,000 -1,200 Descending New York Center
09:08PM 39.9667 -75.1000 171° South 190 219 2,400 -900 Descending Philadelphia TRACON
09:09PM 39.9167 -75.1333 207° Southwest 168 193 1,500 -840 Descending Philadelphia TRACON
09:10PM 39.9000 -75.1500 217° Southwest 153 176 1,000 -720 Descending Philadelphia TRACON
09:11PM 39.8833 -75.2000 247° West 124 143 300 -660 Descending Philadelphia TRACON